Time;durP1;ratioP1;P1;durP2;ratioP2;P2;SDS_P1;SDS_P2;PMS_P1;PMS_P2;Temp;Humidity;BMP_temperature;BMP_pressure;BME280_temperature;BME280_humidity;BME280_pressure;Samples;Min_cycle;Max_cycle;Signal;HPM_P1;HPM_P2
2024/01/27 00:02:05;;;;;;;8.40;4.35;;;;;;;6.44;85.01;93918.75;2031863;70;20136;-79
2024/01/27 00:04:31;;;;;;;8.43;4.00;;;;;;;6.65;85.11;93915.84;2031806;70;20609;-78
2024/01/27 00:06:57;;;;;;;8.02;4.20;;;;;;;6.77;84.10;93914.91;2017749;70;20756;-77
2024/01/27 00:09:22;;;;;;;6.57;4.00;;;;;;;6.79;84.03;93911.56;1993506;70;20295;-77
2024/01/27 00:11:51;;;;;;;8.35;4.00;;;;;;;6.60;84.32;93918.25;1997892;70;20204;-77
2024/01/27 00:14:20;;;;;;;6.30;3.47;;;;;;;6.77;83.74;93925.38;1996881;70;20553;-78
2024/01/27 00:16:46;;;;;;;5.57;3.70;;;;;;;6.79;83.56;93931.91;1994106;70;20156;-76
2024/01/27 00:19:12;;;;;;;7.53;4.10;;;;;;;6.88;83.21;93939.03;1995172;70;20159;-78
2024/01/27 00:22:02;;;;;;;6.43;3.38;;;;;;;6.91;83.54;93937.16;2000661;70;20201;-79
2024/01/27 00:24:28;;;;;;;5.65;2.95;;;;;;;6.93;83.76;93937.34;1996801;70;22398;-77
2024/01/27 00:26:54;;;;;;;3.95;2.83;;;;;;;6.68;84.50;93943.44;1999440;70;22568;-76
2024/01/27 00:29:20;;;;;;;4.53;2.92;;;;;;;6.89;84.16;93957.31;1995831;70;20164;-79
2024/01/27 00:31:49;;;;;;;4.72;3.28;;;;;;;6.46;83.99;93949.72;1997887;70;20260;-77
2024/01/27 00:34:14;;;;;;;5.68;3.70;;;;;;;6.26;85.71;93960.44;1999068;70;20197;-78
2024/01/27 00:36:42;;;;;;;8.70;3.95;;;;;;;6.50;85.15;93966.88;1997907;70;20257;-78
2024/01/27 00:39:08;;;;;;;7.75;4.38;;;;;;;6.63;84.28;93966.75;2004629;70;20798;-79
2024/01/27 00:41:34;;;;;;;6.68;3.80;;;;;;;6.71;84.00;93977.97;2000300;70;20181;-78
2024/01/27 00:47:47;;;;;;;7.93;3.72;;;;;;;6.71;83.47;93978.72;2024493;70;20164;-79
2024/01/27 01:47:06;;;;;;;4.75;3.00;;;;;;;6.06;84.24;94025.59;2084415;65;20282;-78
2024/01/27 01:49:33;;;;;;;5.35;2.95;;;;;;;6.07;84.26;94022.25;2017524;71;20714;-76
2024/01/27 01:51:59;;;;;;;3.72;2.88;;;;;;;6.04;84.54;94017.75;2021493;71;20181;-78
2024/01/27 01:54:27;;;;;;;3.80;2.90;;;;;;;6.01;84.03;94015.31;2021739;71;20234;-78
2024/01/27 01:56:55;;;;;;;5.55;3.47;;;;;;;5.58;85.03;94016.66;1991215;71;20157;-76
2024/01/27 01:59:21;;;;;;;6.28;3.30;;;;;;;5.77;84.06;94027.59;1993613;71;20204;-77
2024/01/27 02:01:48;;;;;;;9.38;3.63;;;;;;;5.82;83.19;94032.31;1989951;71;20561;-79
2024/01/27 02:04:14;;;;;;;3.22;2.60;;;;;;;5.68;83.29;94020.47;1988138;71;21012;-77
2024/01/27 02:06:40;;;;;;;9.77;2.40;;;;;;;5.63;83.33;94032.53;1988361;70;20153;-75
2024/01/27 02:09:06;;;;;;;3.97;2.58;;;;;;;5.67;84.42;94032.94;1993372;71;20168;-79
2024/01/27 02:11:32;;;;;;;3.42;2.58;;;;;;;5.61;84.11;94037.91;1990036;70;20177;-78
2024/01/27 02:13:58;;;;;;;3.65;2.70;;;;;;;5.69;83.76;94043.56;1988407;70;20204;-78
2024/01/27 02:16:24;;;;;;;5.00;3.15;;;;;;;5.40;84.55;94045.53;1990010;70;22227;-78
2024/01/27 02:18:50;;;;;;;7.38;3.38;;;;;;;5.19;85.74;94045.53;1991834;71;20204;-76
2024/01/27 02:21:18;;;;;;;4.45;2.92;;;;;;;5.29;85.72;94047.31;1991697;70;20188;-79
2024/01/27 02:23:43;;;;;;;4.30;2.90;;;;;;;5.44;84.52;94043.16;1992262;71;20249;-78
2024/01/27 02:26:10;;;;;;;5.80;3.03;;;;;;;5.40;83.97;94049.09;1985001;71;20188;-78
2024/01/27 02:28:36;;;;;;;4.43;2.80;;;;;;;5.38;83.63;94053.72;1987823;71;20188;-75
2024/01/27 02:31:02;;;;;;;4.57;3.00;;;;;;;5.33;83.08;94044.19;1993017;71;20743;-76
2024/01/27 02:33:28;;;;;;;6.28;2.70;;;;;;;5.40;83.41;94060.25;1994930;71;20172;-75
2024/01/27 02:35:55;;;;;;;3.80;2.90;;;;;;;5.29;83.50;94057.75;1992036;70;20182;-74
2024/01/27 02:38:20;;;;;;;3.22;2.40;;;;;;;5.38;83.26;94064.91;1989160;71;20153;-76
2024/01/27 02:40:49;;;;;;;3.47;2.08;;;;;;;5.24;83.76;94064.22;1995495;71;20226;-78
2024/01/27 02:43:15;;;;;;;3.97;2.30;;;;;;;5.27;83.95;94068.72;1995340;71;20266;-78
2024/01/27 02:45:43;;;;;;;4.30;1.70;;;;;;;5.30;83.42;94073.94;1995133;70;20240;-77
2024/01/27 02:48:10;;;;;;;3.13;1.70;;;;;;;5.28;83.29;94073.00;1998637;71;20158;-77
2024/01/27 02:50:36;;;;;;;4.30;2.28;;;;;;;5.28;83.17;94079.34;1991900;71;20212;-77
2024/01/27 02:53:02;;;;;;;4.93;2.40;;;;;;;5.19;83.09;94062.31;1992383;71;22266;-77
2024/01/27 02:55:54;;;;;;;4.40;2.20;;;;;;;5.27;83.38;94068.72;2000581;71;20157;-80
2024/01/27 02:58:20;;;;;;;4.25;2.40;;;;;;;5.20;83.05;94066.59;1999990;71;20160;-80
2024/01/27 03:01:01;;;;;;;2.28;1.95;;;;;;;5.14;83.58;94063.19;2013205;71;20678;-78
2024/01/27 13:45:03;;;;;;;9.55;5.95;;;;;;;6.58;73.04;94323.03;2024942;71;20156;-81
2024/01/27 13:47:29;;;;;;;7.43;4.93;;;;;;;6.99;72.18;94321.53;2022283;71;20226;-82
2024/01/27 13:49:55;;;;;;;7.85;5.38;;;;;;;6.42;73.27;94316.56;2021513;71;20219;-82
2024/01/27 13:52:21;;;;;;;8.02;5.15;;;;;;;6.59;72.22;94313.34;2024729;70;20649;-78
2024/01/27 13:54:47;;;;;;;7.43;4.88;;;;;;;6.51;73.08;94306.94;2021633;71;20153;-81
2024/01/27 13:57:15;;;;;;;7.65;4.85;;;;;;;6.24;73.19;94311.91;2021833;71;20149;-82
2024/01/27 13:59:40;;;;;;;7.40;4.93;;;;;;;6.26;73.84;94312.09;2018425;71;20134;-82
2024/01/27 14:02:06;;;;;;;6.82;5.03;;;;;;;5.49;75.55;94304.84;2026243;70;20156;-81
2024/01/27 14:04:32;;;;;;;10.25;5.22;;;;;;;5.89;75.00;94307.59;2028206;70;20168;-81
2024/01/27 14:06:57;;;;;;;7.85;5.50;;;;;;;5.83;75.02;94300.06;2028211;70;20155;-81
2024/01/27 14:09:24;;;;;;;8.50;5.03;;;;;;;6.23;74.37;94302.78;2028090;70;20172;-81
2024/01/27 14:11:49;;;;;;;8.30;5.70;;;;;;;6.61;72.52;94300.31;2028378;70;20167;-82
2024/01/27 14:14:15;;;;;;;7.10;5.18;;;;;;;6.67;72.21;94296.63;2028339;70;20141;-82
2024/01/27 14:16:43;;;;;;;8.73;5.85;;;;;;;6.83;71.66;94306.66;2028252;70;20157;-81
2024/01/27 14:19:09;;;;;;;7.05;4.85;;;;;;;6.41;73.33;94306.66;2028373;70;20152;-82
2024/01/27 14:21:36;;;;;;;6.25;4.40;;;;;;;5.97;73.93;94297.28;2028407;70;20145;-82
2024/01/27 14:24:05;;;;;;;8.18;4.97;;;;;;;5.94;75.30;94293.50;2025109;70;20581;-79
2024/01/27 14:26:30;;;;;;;9.20;5.85;;;;;;;6.14;74.80;94296.88;2028281;70;20231;-79
2024/01/27 14:28:56;;;;;;;13.48;7.03;;;;;;;6.33;74.13;94287.00;2028682;70;20232;-80
2024/01/27 14:31:22;;;;;;;11.88;6.95;;;;;;;6.50;73.24;94280.25;2025070;70;20157;-79
2024/01/27 14:33:47;;;;;;;10.48;5.78;;;;;;;6.61;72.56;94283.53;2028267;70;20176;-80
2024/01/27 14:36:13;;;;;;;16.98;9.80;;;;;;;6.04;74.45;94268.63;2028430;70;20571;-80
2024/01/27 14:38:40;;;;;;;15.95;10.00;;;;;;;5.80;75.30;94281.59;2025086;70;20157;-80
2024/01/27 14:41:11;;;;;;;13.15;7.95;;;;;;;6.22;74.15;94269.75;2028247;70;20611;-79
2024/01/27 14:43:38;;;;;;;12.23;7.93;;;;;;;6.37;73.58;94269.91;2029600;70;20315;-77
2024/01/27 14:46:04;;;;;;;9.18;6.35;;;;;;;6.39;73.36;94272.13;2031859;70;20232;-80
2024/01/27 14:48:30;;;;;;;7.13;4.75;;;;;;;6.47;73.19;94273.72;2031853;70;20168;-79
2024/01/27 14:50:59;;;;;;;8.02;5.85;;;;;;;6.49;72.91;94276.69;2031911;70;20225;-80
2024/01/27 14:53:27;;;;;;;9.10;5.95;;;;;;;6.48;72.87;94268.88;2032024;70;20141;-78
2024/01/27 14:55:53;;;;;;;6.07;4.40;;;;;;;6.50;73.02;94269.81;2031899;70;20175;-78
2024/01/27 14:58:19;;;;;;;5.60;4.25;;;;;;;6.47;73.28;94270.16;2034662;70;20174;-78
2024/01/27 15:00:51;;;;;;;11.77;8.15;;;;;;;6.43;72.94;94273.31;2033908;70;20228;-79
2024/01/27 15:03:18;;;;;;;9.18;6.50;;;;;;;6.46;72.89;94268.66;2032177;70;20179;-80
2024/01/27 15:05:43;;;;;;;7.82;5.72;;;;;;;6.44;73.22;94274.03;2031893;70;20160;-80
2024/01/27 15:08:09;;;;;;;29.67;16.90;;;;;;;6.42;73.84;94269.00;2031738;70;20514;-80
2024/01/27 15:10:35;;;;;;;35.75;21.20;;;;;;;6.46;74.03;94268.66;2031966;70;20163;-80
2024/01/27 15:13:00;;;;;;;21.15;13.30;;;;;;;6.43;73.92;94273.31;2031785;70;20671;-80
2024/01/27 15:15:26;;;;;;;25.75;15.45;;;;;;;6.47;73.92;94275.75;2031669;70;20144;-80
2024/01/27 15:17:55;;;;;;;27.38;16.67;;;;;;;6.43;74.26;94276.09;2032014;70;20228;-80
2024/01/27 15:20:20;;;;;;;14.07;8.68;;;;;;;6.44;74.33;94290.84;2031766;70;20144;-78
2024/01/27 15:22:46;;;;;;;19.48;15.15;;;;;;;6.43;74.45;94286.53;2031824;70;20248;-81
2024/01/27 15:25:12;;;;;;;11.60;7.95;;;;;;;6.46;74.30;94293.81;2031919;70;20157;-80
2024/01/27 15:27:37;;;;;;;8.57;5.93;;;;;;;6.42;74.76;94291.38;2031675;70;20183;-80
2024/01/27 15:30:03;;;;;;;7.70;5.20;;;;;;;6.37;74.64;94286.69;2031639;70;20155;-81
2024/01/27 15:32:29;;;;;;;6.68;4.63;;;;;;;6.44;74.73;94297.19;2031767;70;20179;-80
2024/01/27 15:34:54;;;;;;;8.23;4.72;;;;;;;6.38;74.77;94293.03;2029576;70;20260;-78
2024/01/27 15:37:21;;;;;;;7.28;5.20;;;;;;;6.41;75.07;94306.66;2031742;70;20147;-80
2024/01/27 15:39:46;;;;;;;8.80;5.65;;;;;;;6.43;74.82;94306.88;2031743;70;20584;-80
2024/01/27 15:42:12;;;;;;;13.23;7.05;;;;;;;6.44;74.82;94308.38;2031727;70;20185;-77
2024/01/27 15:44:37;;;;;;;13.48;7.70;;;;;;;6.29;75.07;94311.03;2031244;70;20168;-80
2024/01/27 15:47:03;;;;;;;6.78;5.38;;;;;;;6.29;75.19;94313.81;2031420;70;20611;-80
2024/01/27 15:49:30;;;;;;;6.22;4.55;;;;;;;6.18;74.60;94298.03;2031306;70;20151;-79
2024/01/27 15:51:55;;;;;;;7.57;5.13;;;;;;;5.82;75.56;94323.72;2028147;70;20161;-80
2024/01/27 15:54:21;;;;;;;8.65;5.70;;;;;;;6.11;74.94;94323.88;2031556;70;20183;-79
2024/01/27 15:56:46;;;;;;;6.38;4.53;;;;;;;6.02;74.59;94336.28;2031465;70;20517;-79
2024/01/27 15:59:16;;;;;;;7.30;4.60;;;;;;;5.68;75.39;94336.22;2031284;70;20240;-78
2024/01/27 16:01:41;;;;;;;6.93;5.05;;;;;;;5.60;76.27;94338.16;2011124;70;20205;-78
2024/01/27 16:04:09;;;;;;;7.05;4.75;;;;;;;5.80;75.40;94351.47;1990066;70;21363;-75
2024/01/27 16:06:35;;;;;;;13.90;8.23;;;;;;;5.73;75.47;94345.78;1988759;70;20159;-77
2024/01/27 16:09:01;;;;;;;30.20;15.05;;;;;;;5.77;75.32;94357.38;2019195;70;20153;-77
2024/01/27 16:11:26;;;;;;;25.02;12.95;;;;;;;5.90;74.94;94345.41;2019321;70;20151;-78
2024/01/27 16:13:52;;;;;;;36.13;16.63;;;;;;;5.72;75.02;94349.84;2021572;70;20196;-78
2024/01/27 16:16:19;;;;;;;7.57;5.72;;;;;;;5.61;75.83;94356.44;2019764;70;20161;-79
2024/01/27 16:18:46;;;;;;;9.55;6.07;;;;;;;5.72;75.24;94353.41;2024238;70;20192;-78
2024/01/27 16:21:11;;;;;;;9.38;6.15;;;;;;;5.86;75.00;94348.53;2023276;70;20229;-78
2024/01/27 16:23:37;;;;;;;10.65;5.50;;;;;;;5.75;75.09;94346.75;2018588;70;22278;-78
2024/01/27 16:26:03;;;;;;;8.73;5.97;;;;;;;5.84;74.87;94354.69;1996947;70;20192;-77
2024/01/27 16:28:29;;;;;;;9.93;6.65;;;;;;;5.86;74.84;94360.50;2012384;70;20236;-79
2024/01/27 16:30:55;;;;;;;11.32;6.20;;;;;;;5.85;75.45;94361.75;2014690;70;22553;-79
2024/01/27 16:33:21;;;;;;;11.02;7.05;;;;;;;5.88;75.64;94359.19;2022168;70;20172;-79
2024/01/27 16:35:46;;;;;;;10.05;6.07;;;;;;;6.08;76.33;94358.53;2022058;70;20192;-79
2024/01/27 16:38:13;;;;;;;18.48;7.25;;;;;;;6.17;76.17;94360.13;2025969;70;20152;-77
2024/01/27 16:40:39;;;;;;;306.52;113.03;;;;;;;6.18;76.88;94367.19;2024642;70;20156;-76
2024/01/27 16:43:05;;;;;;;622.10;220.07;;;;;;;6.23;76.82;94366.31;2023716;70;20188;-78
2024/01/27 16:45:33;;;;;;;225.25;72.72;;;;;;;6.14;76.69;94372.38;2023063;70;20289;-78
2024/01/27 16:47:59;;;;;;;14.02;7.35;;;;;;;6.11;75.91;94374.22;2025448;70;20543;-79
2024/01/27 16:50:25;;;;;;;8.30;5.68;;;;;;;6.06;75.16;94380.69;2010952;70;20165;-79
2024/01/27 16:52:51;;;;;;;6.50;5.03;;;;;;;5.91;74.57;94377.66;2022458;70;20524;-77
2024/01/27 16:55:16;;;;;;;8.50;5.38;;;;;;;5.91;74.72;94380.47;2013819;70;20233;-79
2024/01/27 16:57:42;;;;;;;7.22;5.18;;;;;;;5.78;75.30;94392.44;2023681;70;20172;-79
2024/01/27 17:00:11;;;;;;;6.95;5.20;;;;;;;5.78;75.53;94390.38;2022391;70;20747;-79
2024/01/27 17:02:37;;;;;;;7.82;5.00;;;;;;;5.82;74.87;94393.59;2020145;70;20157;-80
2024/01/27 17:05:03;;;;;;;7.07;5.00;;;;;;;5.82;74.96;94407.59;2026777;70;20197;-80
2024/01/27 17:07:32;;;;;;;7.93;5.53;;;;;;;5.76;74.47;94403.38;2023220;70;20144;-79
2024/01/27 17:10:00;;;;;;;7.43;4.70;;;;;;;5.63;74.94;94409.72;2028338;70;20590;-80
2024/01/27 17:12:26;;;;;;;6.75;5.18;;;;;;;5.65;74.83;94409.19;2004688;70;20260;-78
2024/01/27 17:14:52;;;;;;;8.02;5.35;;;;;;;5.56;75.15;94411.13;1990093;70;20192;-77
2024/01/27 17:17:18;;;;;;;7.72;5.35;;;;;;;5.52;75.41;94409.94;1988173;70;20217;-77
2024/01/27 17:19:44;;;;;;;7.82;5.60;;;;;;;5.51;75.46;94414.78;2016980;70;20684;-80
2024/01/27 17:22:10;;;;;;;7.07;5.28;;;;;;;5.43;75.22;94416.72;2022197;70;20176;-80
2024/01/27 17:24:35;;;;;;;8.63;5.70;;;;;;;5.42;75.38;94415.22;2021468;70;20521;-77
2024/01/27 17:27:01;;;;;;;12.73;7.05;;;;;;;5.33;75.65;94424.75;2018867;70;20156;-79
2024/01/27 17:29:26;;;;;;;16.35;8.60;;;;;;;5.28;75.46;94427.66;2016973;70;20704;-80
2024/01/27 17:31:54;;;;;;;16.75;8.98;;;;;;;5.17;75.14;94430.63;2017365;70;20165;-80
2024/01/27 17:34:20;;;;;;;23.00;12.18;;;;;;;5.07;75.59;94433.09;2022326;70;20220;-77
2024/01/27 17:36:47;;;;;;;16.30;8.93;;;;;;;5.05;75.70;94433.63;2017312;70;20233;-80
2024/01/27 17:39:14;;;;;;;17.40;8.45;;;;;;;5.01;76.05;94430.38;2022266;71;20160;-77
2024/01/27 17:41:40;;;;;;;19.98;11.93;;;;;;;4.81;77.11;94439.31;2024025;70;20656;-78
2024/01/27 17:44:07;;;;;;;23.63;11.68;;;;;;;4.95;76.50;94437.34;2023772;70;20871;-79
2024/01/27 17:46:33;;;;;;;16.40;9.50;;;;;;;4.88;76.56;94435.19;2026389;70;20153;-78
2024/01/27 17:48:59;;;;;;;18.33;10.32;;;;;;;4.83;76.69;94439.56;2028110;70;20141;-78
2024/01/27 17:51:25;;;;;;;17.50;9.18;;;;;;;4.75;76.57;94435.88;2023942;70;20153;-77
2024/01/27 17:53:51;;;;;;;17.38;11.52;;;;;;;4.78;76.94;94441.16;2027371;70;20557;-79
2024/01/27 17:56:24;;;;;;;11.90;7.88;;;;;;;4.73;76.47;94444.78;2027402;70;20979;-79
2024/01/27 17:58:50;;;;;;;11.15;6.63;;;;;;;4.65;76.63;94454.31;2027354;70;20235;-79
2024/01/27 18:01:15;;;;;;;9.05;6.28;;;;;;;4.64;76.41;94447.97;2023510;70;20145;-79
2024/01/27 18:03:42;;;;;;;10.63;7.18;;;;;;;4.51;76.35;94459.81;2026602;70;20279;-79
2024/01/27 18:06:08;;;;;;;9.77;6.70;;;;;;;4.38;76.49;94459.75;2027351;70;20797;-82
2024/01/27 18:08:34;;;;;;;9.40;6.60;;;;;;;4.34;76.21;94457.25;2027177;70;20136;-80
2024/01/27 18:11:00;;;;;;;8.57;6.38;;;;;;;4.06;76.49;94466.00;2020865;70;20173;-82
2024/01/27 18:13:27;;;;;;;27.52;15.60;;;;;;;3.99;77.98;94468.63;2024035;71;20824;-82
2024/01/27 18:15:53;;;;;;;25.85;13.55;;;;;;;4.12;77.88;94463.13;2024676;71;20164;-81
2024/01/27 18:18:18;;;;;;;23.05;12.50;;;;;;;4.05;77.85;94472.09;2025097;71;20245;-81
2024/01/27 18:20:44;;;;;;;24.13;13.50;;;;;;;4.07;77.64;94464.69;2025195;71;20153;-82
2024/01/27 18:23:09;;;;;;;22.35;13.20;;;;;;;3.91;77.85;94470.50;2025106;71;20592;-81
2024/01/27 18:25:35;;;;;;;20.13;12.68;;;;;;;3.76;78.86;94466.09;2025126;71;20475;-81
2024/01/27 18:28:03;;;;;;;20.17;11.95;;;;;;;3.75;77.44;94475.72;2025093;71;20160;-80
2024/01/27 18:30:29;;;;;;;19.98;11.95;;;;;;;3.72;77.86;94476.78;2025147;71;20149;-81
2024/01/27 18:32:55;;;;;;;18.83;10.88;;;;;;;3.73;78.14;94475.50;2026725;71;20224;-80
2024/01/27 18:35:21;;;;;;;18.55;11.02;;;;;;;3.63;78.24;94479.19;2030510;71;20634;-80
2024/01/27 18:37:47;;;;;;;17.20;10.60;;;;;;;3.66;78.45;94489.25;2025833;71;20141;-80
2024/01/27 18:40:13;;;;;;;51.63;22.35;;;;;;;3.45;78.87;94486.19;2025280;71;20152;-80
2024/01/27 18:42:38;;;;;;;59.45;24.40;;;;;;;3.38;78.40;94495.09;2024746;71;20157;-80
2024/01/27 18:45:04;;;;;;;45.92;21.35;;;;;;;3.41;78.84;94497.59;2024695;71;20196;-81
2024/01/27 18:47:30;;;;;;;52.85;21.17;;;;;;;3.35;78.40;94491.34;2025017;71;20196;-78
2024/01/27 18:49:56;;;;;;;45.97;18.58;;;;;;;3.30;77.50;94495.69;2025201;71;20229;-81
2024/01/27 18:52:22;;;;;;;30.20;15.05;;;;;;;3.33;77.63;94507.06;2025089;71;20196;-81
2024/01/27 18:54:47;;;;;;;53.80;21.63;;;;;;;3.26;79.40;94511.91;2025022;71;20146;-80
2024/01/27 18:57:13;;;;;;;38.20;16.50;;;;;;;3.26;78.37;94508.38;2024956;71;20677;-83
2024/01/27 18:59:41;;;;;;;47.10;20.20;;;;;;;3.24;78.20;94506.09;2024927;71;20141;-80
2024/01/27 19:02:08;;;;;;;35.17;16.65;;;;;;;3.14;78.27;94516.06;2024908;71;20178;-82
2024/01/27 19:04:34;;;;;;;28.05;13.18;;;;;;;3.12;77.46;94512.31;2025021;71;20142;-81
2024/01/27 19:06:59;;;;;;;28.42;14.02;;;;;;;2.91;78.12;94514.72;2024870;71;20532;-80
2024/01/27 19:09:25;;;;;;;35.83;15.45;;;;;;;3.09;78.31;94519.66;2024590;71;20474;-79
2024/01/27 19:11:53;;;;;;;23.77;12.20;;;;;;;3.01;78.20;94525.00;2024052;71;20506;-78
2024/01/27 19:14:20;;;;;;;26.27;13.23;;;;;;;2.97;78.42;94521.00;2024421;71;20148;-78
2024/01/27 19:16:46;;;;;;;26.95;12.43;;;;;;;2.97;78.91;94521.00;2024637;71;20220;-79
2024/01/27 19:19:12;;;;;;;20.80;11.07;;;;;;;2.94;78.30;94522.06;2024606;71;20145;-79
2024/01/27 19:21:38;;;;;;;23.77;12.93;;;;;;;2.88;78.22;94530.41;2024814;71;20163;-77
2024/01/27 19:24:04;;;;;;;20.88;11.75;;;;;;;2.89;78.37;94518.03;2024771;71;20250;-78
2024/01/27 19:26:29;;;;;;;29.85;13.70;;;;;;;2.77;78.94;94525.69;2024805;71;20145;-78
2024/01/27 19:28:55;;;;;;;28.48;14.20;;;;;;;2.75;78.87;94524.72;2024007;71;20153;-78
2024/01/27 19:31:21;;;;;;;25.80;13.52;;;;;;;2.76;78.23;94515.84;2024721;71;20164;-78
2024/01/27 19:33:46;;;;;;;24.30;13.20;;;;;;;2.69;78.41;94521.19;2024769;71;20214;-79
2024/01/27 19:36:13;;;;;;;24.33;13.00;;;;;;;2.50;78.47;94518.28;2024768;71;20156;-79
2024/01/27 19:38:38;;;;;;;28.42;13.90;;;;;;;2.68;78.94;94528.03;2024775;71;20219;-79
2024/01/27 19:41:05;;;;;;;28.63;13.10;;;;;;;2.68;78.72;94528.78;2024765;71;20177;-79
2024/01/27 19:43:42;;;;;;;11.80;6.85;;;;;;;2.57;79.05;94512.19;2024559;70;20632;-78
2024/01/27 19:46:10;;;;;;;24.48;13.68;;;;;;;2.53;79.54;94522.81;2021652;71;20176;-78
2024/01/27 19:48:35;;;;;;;20.23;12.90;;;;;;;2.60;79.84;94524.28;2024623;71;20689;-79
2024/01/27 19:51:02;;;;;;;11.95;7.95;;;;;;;2.54;79.87;94530.63;2024767;71;20228;-80
2024/01/27 19:53:30;;;;;;;12.57;7.53;;;;;;;2.71;79.17;94535.34;2021351;71;20156;-77
2024/01/27 19:55:55;;;;;;;11.43;6.30;;;;;;;2.73;79.03;94538.38;2024628;71;20214;-77
2024/01/27 19:58:22;;;;;;;10.90;6.47;;;;;;;2.79;79.10;94530.72;2024431;71;20157;-78
2024/01/27 20:00:50;;;;;;;14.20;8.18;;;;;;;2.53;80.80;94534.69;2024777;71;20572;-77
2024/01/27 20:03:16;;;;;;;11.63;6.57;;;;;;;2.67;79.44;94541.19;2024786;71;20238;-79
2024/01/27 20:05:42;;;;;;;9.98;5.80;;;;;;;2.45;81.25;94532.97;2021576;71;20603;-79
2024/01/27 20:08:08;;;;;;;9.82;5.97;;;;;;;2.37;81.56;94524.41;2024009;70;20665;-79
2024/01/27 20:10:34;;;;;;;7.53;5.32;;;;;;;2.55;80.12;94539.72;2024593;71;20148;-80
2024/01/27 20:13:00;;;;;;;9.57;5.80;;;;;;;2.59;79.53;94536.69;2021479;71;20137;-79
2024/01/27 20:15:26;;;;;;;10.00;6.00;;;;;;;2.49;80.17;94537.00;2025110;71;20141;-79
2024/01/27 20:17:52;;;;;;;9.70;6.43;;;;;;;2.53;79.61;94531.16;2025416;71;20586;-80
2024/01/27 20:20:18;;;;;;;11.60;7.00;;;;;;;2.51;80.35;94533.69;2025374;71;20147;-82
2024/01/27 20:22:45;;;;;;;10.70;6.82;;;;;;;2.50;79.86;94535.72;2023097;71;20581;-79
2024/01/27 20:25:11;;;;;;;12.23;7.05;;;;;;;2.43;79.60;94533.50;2028211;71;20180;-79
2024/01/27 20:27:36;;;;;;;11.95;7.07;;;;;;;2.55;79.27;94543.25;2025704;71;20594;-78
2024/01/27 20:30:06;;;;;;;12.35;6.43;;;;;;;2.51;79.35;94551.13;2025261;71;20137;-78
2024/01/27 20:32:31;;;;;;;11.95;6.57;;;;;;;2.34;79.12;94539.34;2025374;71;20325;-78
2024/01/27 20:34:57;;;;;;;13.93;7.95;;;;;;;2.45;79.34;94541.31;2025370;71;20594;-78
2024/01/27 20:37:23;;;;;;;14.50;7.97;;;;;;;2.37;79.54;94543.13;2025098;71;20156;-79
2024/01/27 20:39:49;;;;;;;11.07;7.50;;;;;;;2.41;79.32;94552.69;2025049;70;20153;-78
2024/01/27 20:42:14;;;;;;;13.18;7.93;;;;;;;2.44;78.99;94550.94;2025277;71;20587;-80
2024/01/27 20:44:40;;;;;;;13.60;7.95;;;;;;;2.31;79.87;94551.47;2025075;71;20165;-79
2024/01/27 20:47:06;;;;;;;13.98;7.85;;;;;;;2.28;79.12;94544.16;2025374;71;20213;-80
2024/01/27 20:49:32;;;;;;;16.02;8.68;;;;;;;2.11;78.82;94549.03;2025726;71;20137;-80
2024/01/27 20:51:58;;;;;;;15.55;8.50;;;;;;;1.83;80.79;94551.91;2025663;71;20605;-80
2024/01/27 20:54:24;;;;;;;15.25;8.98;;;;;;;1.98;80.94;94546.81;2025867;71;20148;-80
2024/01/27 20:56:49;;;;;;;14.00;8.00;;;;;;;2.17;79.79;94556.09;2025528;71;20169;-79
2024/01/27 20:59:15;;;;;;;10.80;6.85;;;;;;;2.16;79.21;94562.16;2025065;71;20214;-80
2024/01/27 21:01:40;;;;;;;10.05;6.53;;;;;;;2.17;79.23;94561.66;2025278;71;20196;-81
2024/01/27 21:04:09;;;;;;;18.40;9.35;;;;;;;1.66;79.56;94558.25;2024894;71;20522;-80
2024/01/27 21:06:37;;;;;;;18.05;9.77;;;;;;;1.69;81.06;94560.00;2025088;71;20296;-79
2024/01/27 21:09:05;;;;;;;22.75;10.70;;;;;;;1.80;80.10;94553.69;2025075;71;20145;-81
2024/01/27 21:11:31;;;;;;;18.38;10.20;;;;;;;1.78;80.44;94545.09;2021800;71;20251;-80
2024/01/27 21:17:47;;;;;;;16.60;9.23;;;;;;;1.82;79.39;94550.38;2024967;71;20220;-78
2024/01/27 21:20:16;;;;;;;22.17;10.15;;;;;;;1.81;79.05;94546.09;2025418;71;20269;-80
2024/01/27 21:22:42;;;;;;;15.15;8.68;;;;;;;1.68;78.91;94529.97;2024886;71;20145;-78
2024/01/27 21:25:08;;;;;;;14.77;8.25;;;;;;;1.84;79.44;94548.63;2024537;71;20146;-79
2024/01/27 21:27:35;;;;;;;14.80;8.48;;;;;;;1.86;79.69;94542.56;2025151;70;20157;-79
2024/01/27 21:30:02;;;;;;;13.45;8.05;;;;;;;1.64;79.73;94546.88;2025153;71;20656;-79
2024/01/27 21:32:27;;;;;;;16.38;8.25;;;;;;;1.77;79.50;94551.91;2025047;71;20152;-80
2024/01/27 21:34:54;;;;;;;13.13;7.65;;;;;;;1.57;80.66;94528.00;2025149;71;20141;-80
2024/01/27 21:37:20;;;;;;;11.45;6.90;;;;;;;1.73;80.16;94543.09;2025170;71;20160;-80
2024/01/27 21:39:46;;;;;;;13.73;7.00;;;;;;;1.66;79.40;94538.81;2025173;71;20152;-80
2024/01/27 21:42:12;;;;;;;11.73;7.47;;;;;;;1.59;79.52;94535.81;2025015;71;20141;-80
2024/01/27 21:44:37;;;;;;;11.77;7.30;;;;;;;1.45;79.81;94543.16;2024979;71;20499;-80
2024/01/27 21:47:03;;;;;;;14.65;7.97;;;;;;;1.52;79.69;94537.09;2021857;71;20229;-80
2024/01/27 21:49:29;;;;;;;11.90;7.18;;;;;;;1.59;79.93;94544.88;2025264;71;20149;-79
2024/01/27 21:51:55;;;;;;;11.90;6.90;;;;;;;1.59;79.97;94538.59;2025277;71;20245;-79
2024/01/27 21:54:21;;;;;;;12.55;7.45;;;;;;;1.56;79.80;94536.81;2025099;71;20176;-80
2024/01/27 21:56:47;;;;;;;14.07;6.88;;;;;;;1.50;79.39;94534.81;2025113;71;20149;-80
2024/01/27 21:59:13;;;;;;;12.15;6.60;;;;;;;1.39;79.86;94515.41;2025262;71;20494;-80
2024/01/27 22:01:40;;;;;;;10.60;5.88;;;;;;;1.58;79.77;94537.06;2025010;71;20180;-79
2024/01/27 22:04:06;;;;;;;9.13;5.55;;;;;;;1.58;79.50;94531.53;2024608;71;20257;-80
2024/01/27 22:06:33;;;;;;;8.80;5.32;;;;;;;1.61;79.83;94538.84;2025071;71;20657;-79
2024/01/27 22:08:59;;;;;;;8.73;4.88;;;;;;;1.56;79.32;94540.38;2025230;71;20149;-81
2024/01/27 22:11:26;;;;;;;10.40;5.57;;;;;;;1.47;79.26;94530.28;2028658;71;20220;-79
2024/01/27 22:13:52;;;;;;;9.43;5.13;;;;;;;1.51;79.37;94541.88;2027184;71;20156;-79
2024/01/27 22:16:18;;;;;;;12.32;6.78;;;;;;;1.43;80.31;94534.59;2025427;71;20161;-80
2024/01/27 22:18:44;;;;;;;11.57;6.80;;;;;;;1.42;79.45;94536.59;2021949;71;20148;-79
2024/01/27 22:21:12;;;;;;;11.55;7.00;;;;;;;1.30;79.20;94546.19;2025203;71;20628;-79
2024/01/27 22:23:39;;;;;;;14.10;8.27;;;;;;;1.22;79.86;94545.94;2025078;71;20171;-79
2024/01/27 22:26:05;;;;;;;11.30;7.47;;;;;;;1.18;79.39;94537.09;2021892;71;20523;-80
2024/01/27 22:28:31;;;;;;;11.57;6.53;;;;;;;1.17;79.29;94545.94;2021745;71;20636;-80
2024/01/27 22:30:56;;;;;;;12.73;6.93;;;;;;;1.22;79.71;94545.19;2024915;71;20244;-79
2024/01/27 22:33:23;;;;;;;12.50;7.20;;;;;;;1.15;79.28;94537.38;2025030;71;20165;-80
2024/01/27 22:35:49;;;;;;;11.88;6.85;;;;;;;1.13;79.77;94535.09;2024933;71;20156;-78
2024/01/27 22:38:15;;;;;;;11.43;6.70;;;;;;;1.17;79.51;94545.94;2025542;71;20210;-83
2024/01/27 22:40:41;;;;;;;11.23;6.55;;;;;;;1.21;79.25;94547.19;2022933;71;20177;-83
2024/01/27 22:43:07;;;;;;;9.02;6.00;;;;;;;1.20;79.43;94545.69;2025823;71;20249;-82
2024/01/27 22:45:32;;;;;;;11.48;5.03;;;;;;;1.15;79.03;94538.13;2022146;71;20158;-79
2024/01/27 22:51:48;;;;;;;10.27;5.45;;;;;;;1.16;78.85;94541.66;2024650;71;20152;-79
2024/01/27 22:54:14;;;;;;;7.47;4.40;;;;;;;1.19;79.03;94538.66;2025008;71;20599;-79
2024/01/27 22:56:40;;;;;;;8.68;5.28;;;;;;;1.16;79.08;94536.13;2025576;70;20168;-78
2024/01/27 22:59:05;;;;;;;10.43;5.40;;;;;;;1.08;79.04;94538.63;2026029;70;20149;-79
2024/01/27 23:01:33;;;;;;;7.28;4.78;;;;;;;1.02;78.60;94535.88;2025933;70;20226;-79
2024/01/27 23:03:58;;;;;;;10.82;4.70;;;;;;;0.93;78.67;94535.34;2027069;70;20137;-79
2024/01/27 23:06:24;;;;;;;7.78;4.95;;;;;;;0.97;79.35;94544.94;2024173;71;20149;-78
2024/01/27 23:08:49;;;;;;;9.63;4.97;;;;;;;0.90;78.83;94530.81;2025011;70;20153;-78
2024/01/27 23:11:17;;;;;;;8.98;4.80;;;;;;;0.88;79.06;94522.25;2024903;71;20604;-79
2024/01/27 23:13:43;;;;;;;6.78;4.05;;;;;;;0.83;78.74;94523.75;2024896;71;20165;-78
2024/01/27 23:16:11;;;;;;;13.70;6.05;;;;;;;0.61;80.22;94509.88;2021723;71;20683;-79
2024/01/27 23:18:37;;;;;;;15.20;7.65;;;;;;;0.74;79.24;94527.53;2024987;71;20217;-78
2024/01/27 23:21:03;;;;;;;13.32;6.40;;;;;;;0.82;79.18;94529.78;2024736;71;20153;-78